South Thomaston, ME (04858)

8:19 AM EST on February 07, 2016 (GMT -0500)
Saint George River GRN13 | | Change Station
CLOSE
Current Station
Personal Weather Station
Location: Saint George, ME
Elevation: 49 ft
Nearby Weather Stations

Elev 49 ft 44.04 °N, 69.19 °W | Updated 4 minutes ago

Clear
Clear
30.8 °F
Feels Like 27 °F
N
4.0
Wind Variable Wind from West
Gusts 5.0 mph

Today
High -- | Low -- °F
--% Chance of Precip.
Yesterday
High -- | Low -- °F
Precip. -- in
Pressure 30.12 in
Visibility 10.0 miles
Clouds Clear
Windchill 27 °F
Dew Point 26 °F
Humidity 82%
Rainfall 0.00 in
Snow Depth Not available.
6:47 AM 4:54 PM
Waning Crescent, 2% visible
METAR KRKD 071256Z AUTO 27005KT 10SM CLR M03/M06 A3011 RMK AO2 SLP197 T10331056 FZRANO
Pressure 30.12 in
Visibility 10.0 miles
Clouds Clear
Windchill 27 °F
Dew Point 26 °F
Humidity 82%
Rainfall 0.00 in
Snow Depth Not available.
6:47 AM 4:54 PM
Waning Crescent, 2% visible
METAR KRKD 071256Z AUTO 27005KT 10SM CLR M03/M06 A3011 RMK AO2 SLP197 T10331056 FZRANO

10-Day Weather Forecast

Almanac

Astronomy

Feb. 07, 2016 Rise Set
Actual Time
Civil Twilight
Nautical Twilight
Astronomical Twilight
Moon
Length of Visible Light
Length of Day
Tomorrow will be .
, % of the Moon is Illuminated

Today's Extremes

State Highs State Lows

Community

WunderPhotos

Upload Photos

1,891,190 photos uploaded!

WunderBlog® & News

Nearby

Air Quality

  Air Quality AQ Index Pollutant
Not available.

Snow Depth

Station Depth Elevation

Earthquake Activity

City Distance Mag. Time & Date
Minimum magnitude displayed is 2.5.

Coastal Water Temperatures

Place Temperature

Stations

Nearby Weather Stations

Station Location Temp. Windchill Dew Point Humidity Wind Precip. Elev Updated Type
                   

Watches & Warnings

There are currently no watches in effect.